Alda, NE (68810)

8:02 PM CDT on August 27, 2015 (GMT -0500)
Riverside/Barr | | Change Station
CLOSE
Current Station
Personal Weather Station
Location: Grand Island, NE
Elevation: 1856 ft
Nearby Weather Stations
Active Advisory: Severe Thunderstorm Watch

Elev 1856 ft 40.90 °N, 98.35 °W | Updated 21 seconds ago

Partly Cloudy
Partly Cloudy
77.1 °F
Feels Like 79 °F
N
0.0
Wind Variable Wind from SW
Gusts 9.0 mph

Today
High -- | Low -- °F
--% Chance of Precip.
Yesterday
High -- | Low -- °F
Precip. -- in
6:55 AM 8:14 PM
Waxing Gibbous, 96% visible
Pressure 29.79 in
Visibility 10.0 miles
Clouds Mostly Cloudy 10000 ft
Mostly Cloudy 12000 ft
Heat Index 79 °F
Dew Point 69 °F
Humidity 75%
Rainfall 0.00 in
Snow Depth Not available.
UV 0.0 out of 12
Pollen 10.20 out of 12
Air Quality Not available.
Flu Activity Not available.
METAR KGRI 280053Z 16018G25KT 10SM BKN100 BKN120 26/19 A2982 RMK AO2 PK WND 16029/0020 LTG DSNT NE SLP088 T02560194
Pressure 29.79 in
Visibility 10.0 miles
Clouds Mostly Cloudy 10000 ft
Mostly Cloudy 12000 ft
Heat Index 79 °F
Dew Point 69 °F
Humidity 75%
Rainfall 0.00 in
Snow Depth Not available.
UV 0.0 out of 12
Pollen 10.20 out of 12
Air Quality Not available.
Flu Activity Not available.
METAR KGRI 280053Z 16018G25KT 10SM BKN100 BKN120 26/19 A2982 RMK AO2 PK WND 16029/0020 LTG DSNT NE SLP088 T02560194

10-Day Weather Forecast

×

Almanac

Astronomy

Aug. 27, 2015 Rise Set
Actual Time
Civil Twilight
Nautical Twilight
Astronomical Twilight
Moon
Length of Visible Light
Length of Day
Tomorrow will be .
, % of the Moon is Illuminated

Today's Extremes

State Highs State Lows

Community

WunderPhotos

Upload Photos

1,850,288 photos uploaded!

WunderBlogs® & News

Nearby

Air Quality

  Air Quality AQ Index Pollutant
Not available.

Snow Depth

Station Depth Elevation

Earthquake Activity

City Distance Mag. Time & Date
Minimum magnitude displayed is 2.5.

Coastal Water Temperatures

Place Temperature

Stations

Nearby Weather Stations

Station Location Temp. Windchill Dew Point Humidity Wind Precip. Elev Updated Type
                   
Severe Thunderstorm Watch
Statement as of 7:43 PM CDT on August 27, 2015

Severe Thunderstorm Watch 501 remains in effect until 1200 am CDT
for the following locations


NE
. Nebraska counties included are

Antelope Blaine Boone
Boyd Brown Buffalo
Butler Clay Colfax
Custer Dawson Fillmore
Garfield Greeley Hall
Hamilton Holt Howard
Jefferson Knox Loup
Madison Merrick Nance
Pierce Platte Polk
rock Saline Seward
Sherman Thayer valley
Wheeler York